Scammon Bay, AK

9:21 PM AKST on January 22, 2017 (GMT -0900)
Cape Romanzof LRRS | | Change Station
Active Advisory: Wind Chill Advisory

Elev 456 ft 61.78 °N, 166.04 °W | Updated 26 minutes ago

Snow
Snow
-13 °F
Feels Like -47 °F
N
39
Wind Variable Wind from North
Gusts 45 mph

Today
High -- | Low -- °F
--% Chance of Precip.
Yesterday
High -- | Low -- °F
Precip. -- in
Pressure 29.62 in
Visibility 1.5 miles
Clouds Few 23000 ft
Windchill -47 °F
Dew Point -19 °F
Humidity 76%
Rainfall 0.00 in
Snow Depth Not available.
10:51 AM 5:41 PM
Waning Crescent, 21% visible
METAR PACZ 230555Z AUTO 36034G39KT 210V140 1 1/2SM -SHSN BR FEW230 M25/M28 A2955 RMK AO2 PK WND 02039/0548 SNB0524E0527SHSNB0527 SLP029 P0000 60000 T12511282 11163 21250 58036
Pressure 29.62 in
Visibility 1.5 miles
Clouds Few 23000 ft
Windchill -47 °F
Dew Point -19 °F
Humidity 76%
Rainfall 0.00 in
Snow Depth Not available.
10:51 AM 5:41 PM
Waning Crescent, 21% visible
METAR PACZ 230555Z AUTO 36034G39KT 210V140 1 1/2SM -SHSN BR FEW230 M25/M28 A2955 RMK AO2 PK WND 02039/0548 SNB0524E0527SHSNB0527 SLP029 P0000 60000 T12511282 11163 21250 58036

Get Your Daily Forecast Email!

Thanks for signing up!

Be on the lookout for a verification email in your inbox.

You'll start receiving the daily forecast at 8 AM.

×

10-Day Weather Forecast

Almanac

Astronomy

Jan. 22, 2017 Rise Set
Actual Time
Civil Twilight
Nautical Twilight
Astronomical Twilight
Moon
Length of Visible Light
Length of Day
Tomorrow will be .
, % of the Moon is Illuminated

Today's Extremes

State Highs State Lows

Community

WunderPhotos

Upload Photos

1,962,540 photos uploaded!

WunderBlog® & News

Nearby

Air Quality

  Air Quality AQ Index Pollutant
Not available.

Snow Depth

Station Depth Elevation

Earthquake Activity

City Distance Mag. Time & Date
Minimum magnitude displayed is 2.5.

Coastal Water Temperatures

Place Temperature

Stations

Nearby Weather Stations

Station Location Temp. Windchill Dew Point Humidity Wind Precip. Elev Updated Type
                   

Watches & Warnings

Wind Chill Advisory
Issued: 5:41 PM AKST Jan. 22, 2017 – National Weather Service

... Wind Chill Advisory in effect until 9 am akst Monday...

The National Weather Service in Fairbanks has issued a Wind Chill
Advisory... which is in effect until 9 am akst Monday.

* Wind chill values... to 50 below.

* Winds... northeast gusting to 30 mph.

* Timing... conditions will improve Monday morning as temperatures
warm.

* Impacts... exposed skin can freeze quickly causing frostbite.

Precautionary/preparedness actions...

A Wind Chill Advisory means that low wind chills with sustained
wind speeds of 15 mph or more are occurring or expected. If
outdoors... cover exposed skin to prevent frostbite.